Terminal Aerodrome Forecast
Issued by NWS

Home | Current Version | Previous Version | Text Only | Print | Product List | Glossary On
Versions: 1 2 3 4 5 6 7 8 9 10 11 12 13 14
073
FTUS45 KVEF 251120
TAFDAG
TAF
KDAG 251120Z 2512/2612 27011KT P6SM SCT200
     FM251900 VRB05KT P6SM BKN250
     FM260200 27014KT P6SM SCT200=

USA.gov is the U.S. government's official web portal to all federal, state and local government web resources and services.